createdAt,value
2022-08-09T00:00:59.487Z,8.20
2022-08-09T00:04:06.367Z,7.70
2022-08-09T00:06:22.687Z,6.40
2022-08-09T00:08:53.315Z,6.50
2022-08-09T00:11:56.882Z,3.60
2022-08-09T00:14:17.261Z,4.10
2022-08-09T00:16:50.412Z,6.30
2022-08-09T00:19:19.065Z,3.90
2022-08-09T00:21:56.630Z,7.90
2022-08-09T00:24:29.345Z,6.50
2022-08-09T00:26:59.875Z,6.40
2022-08-09T00:29:39.529Z,4.90
2022-08-09T00:32:25.364Z,8.70
2022-08-09T00:34:56.413Z,3.60
2022-08-09T00:37:24.886Z,5.90
2022-08-09T00:40:13.401Z,5.50
2022-08-09T00:44:13.331Z,4.50
2022-08-09T00:45:30.611Z,3.60
2022-08-09T00:48:06.225Z,5.60
2022-08-09T00:50:37.938Z,7.60
2022-08-09T00:53:10.287Z,3.20
2022-08-09T00:56:05.304Z,3.00
2022-08-09T00:58:30.845Z,2.80
2022-08-09T01:01:00.433Z,6.90
2022-08-09T01:03:40.902Z,6.40
2022-08-09T01:06:20.056Z,3.80
2022-08-09T01:08:57.670Z,5.60
2022-08-09T01:11:55.461Z,6.90
2022-08-09T01:14:30.402Z,7.60
2022-08-09T01:17:04.757Z,6.10
2022-08-09T01:20:01.795Z,9.60
2022-08-09T01:25:19.314Z,4.70
2022-08-09T01:27:53.229Z,3.40
2022-08-09T01:30:35.927Z,7.70
2022-08-09T01:33:17.289Z,4.80
2022-08-09T01:35:51.746Z,4.50
2022-08-09T01:38:24.679Z,7.00
2022-08-09T01:41:03.066Z,3.70
2022-08-09T01:43:41.962Z,12.30
2022-08-09T01:46:26.814Z,7.70
2022-08-09T01:48:59.673Z,7.80
2022-08-09T01:51:32.589Z,4.80
2022-08-09T01:54:04.157Z,9.30
2022-08-09T01:56:34.666Z,3.60
2022-08-09T01:59:09.870Z,6.20
2022-08-09T02:01:59.208Z,3.60
2022-08-09T02:04:29.654Z,4.70
2022-08-09T02:07:18.383Z,3.50
2022-08-09T02:10:04.448Z,4.30
2022-08-09T02:12:34.703Z,6.20
2022-08-09T02:15:06.214Z,7.60
2022-08-09T02:18:01.255Z,3.90
2022-08-09T02:20:32.713Z,9.30
2022-08-09T02:23:07.427Z,5.30
2022-08-09T02:25:41.874Z,8.90
2022-08-09T02:28:17.747Z,3.30
2022-08-09T02:30:49.660Z,6.10
2022-08-09T02:33:23.469Z,7.30
2022-08-09T02:36:10.527Z,8.30
2022-08-09T02:38:47.712Z,6.90
2022-08-09T02:41:24.264Z,3.60
2022-08-09T02:43:55.467Z,5.50
2022-08-09T02:46:27.692Z,9.10
2022-08-09T02:49:00.956Z,4.20
2022-08-09T02:51:40.308Z,12.00
2022-08-09T02:54:13.953Z,7.10
2022-08-09T02:56:51.356Z,9.90
2022-08-09T02:59:26.558Z,9.50
2022-08-09T03:02:07.056Z,3.40
2022-08-09T03:04:41.067Z,6.00
2022-08-09T03:07:14.372Z,4.90
2022-08-09T03:09:54.481Z,10.20
2022-08-09T03:12:26.578Z,9.60
2022-08-09T03:14:55.577Z,6.30
2022-08-09T03:17:27.063Z,4.20
2022-08-09T03:20:03.307Z,4.00
2022-08-09T03:22:41.923Z,5.00
2022-08-09T03:25:25.898Z,6.70
2022-08-09T03:28:03.037Z,9.90
2022-08-09T03:30:36.555Z,5.50
2022-08-09T03:33:17.753Z,11.10
2022-08-09T03:36:12.614Z,5.80
2022-08-09T03:38:42.801Z,9.50
2022-08-09T03:41:15.131Z,10.40
2022-08-09T03:44:04.019Z,5.30
2022-08-09T03:46:34.150Z,7.00
2022-08-09T03:49:08.268Z,10.70
2022-08-09T03:51:55.107Z,11.60
2022-08-09T03:54:29.346Z,13.90
2022-08-09T03:57:02.104Z,10.00
2022-08-09T03:59:43.191Z,10.00
2022-08-09T04:02:26.711Z,11.00
2022-08-09T04:04:58.618Z,9.40
2022-08-09T04:07:47.084Z,15.10
2022-08-09T04:10:20.255Z,25.40
2022-08-09T04:12:51.552Z,9.30
2022-08-09T04:15:38.969Z,10.10
2022-08-09T04:18:17.874Z,14.60
2022-08-09T04:20:47.262Z,6.00
2022-08-09T04:23:17.127Z,8.10
2022-08-09T04:25:52.265Z,13.30
2022-08-09T04:28:30.695Z,12.70
2022-08-09T04:31:13.089Z,6.20
2022-08-09T04:33:53.083Z,5.10
2022-08-09T04:36:27.641Z,7.30
2022-08-09T04:38:58.094Z,7.50
2022-08-09T04:41:33.345Z,7.60
2022-08-09T04:44:06.398Z,4.90
2022-08-09T04:46:59.149Z,4.50
2022-08-09T04:49:53.514Z,7.50
2022-08-09T04:52:27.943Z,9.20
2022-08-09T04:54:59.232Z,15.80
2022-08-09T04:57:54.277Z,5.50
2022-08-09T05:00:23.795Z,10.20
2022-08-09T05:02:54.214Z,7.90
2022-08-09T05:05:31.878Z,7.50
2022-08-09T05:08:18.353Z,12.90
2022-08-09T05:10:49.773Z,7.70
2022-08-09T05:13:21.108Z,7.50
2022-08-09T05:15:57.157Z,7.60
2022-08-09T05:18:39.795Z,6.40
2022-08-09T05:21:23.337Z,9.10
2022-08-09T05:24:00.097Z,6.70
2022-08-09T05:26:35.924Z,8.80
2022-08-09T05:29:21.095Z,5.70
2022-08-09T05:32:00.122Z,10.80
2022-08-09T05:34:32.668Z,9.60
2022-08-09T05:37:07.013Z,8.40
2022-08-09T05:39:44.351Z,6.00
2022-08-09T05:42:20.820Z,6.70
2022-08-09T05:44:53.926Z,7.30
2022-08-09T05:47:30.293Z,11.00
2022-08-09T05:50:30.150Z,5.90
2022-08-09T05:52:54.901Z,15.70
2022-08-09T05:55:25.208Z,7.20
2022-08-09T05:57:56.459Z,7.80
2022-08-09T06:00:29.561Z,9.70
2022-08-09T06:03:10.830Z,7.20
2022-08-09T06:05:54.525Z,11.10
2022-08-09T06:08:27.620Z,4.60
2022-08-09T06:10:58.422Z,10.40
2022-08-09T06:13:33.841Z,8.10
2022-08-09T06:16:06.053Z,8.70
2022-08-09T06:18:36.654Z,3.90
2022-08-09T06:21:07.938Z,13.00
2022-08-09T06:23:58.785Z,9.60
2022-08-09T06:26:29.697Z,5.40
2022-08-09T06:29:04.967Z,8.10
2022-08-09T06:31:40.301Z,5.10
2022-08-09T06:34:29.892Z,13.80
2022-08-09T06:37:00.109Z,8.00
2022-08-09T06:39:39.662Z,10.10
2022-08-09T06:42:34.965Z,6.70
2022-08-09T06:46:04.662Z,8.80
2022-08-09T06:48:07.730Z,7.20
2022-08-09T06:50:39.781Z,7.00
2022-08-09T06:53:11.448Z,10.60
2022-08-09T06:55:42.961Z,11.30
2022-08-09T07:00:47.437Z,18.50
2022-08-09T07:01:11.128Z,6.70
2022-08-09T07:03:54.714Z,15.80
2022-08-09T07:06:36.417Z,18.70
2022-08-09T07:09:53.566Z,12.80
2022-08-09T07:12:04.995Z,10.20
2022-08-09T07:14:39.379Z,9.80
2022-08-09T07:17:09.761Z,4.80
2022-08-09T07:19:43.941Z,13.80
2022-08-09T07:22:18.615Z,11.90
2022-08-09T07:25:11.217Z,10.50
2022-08-09T07:27:53.546Z,8.00
2022-08-09T07:30:32.959Z,16.90
2022-08-09T07:33:02.820Z,6.40
2022-08-09T07:35:53.975Z,18.20
2022-08-09T07:38:23.720Z,13.50
2022-08-09T07:41:10.970Z,17.20
2022-08-09T07:43:49.862Z,9.10
2022-08-09T07:46:20.417Z,19.70
2022-08-09T07:48:59.616Z,11.30
2022-08-09T07:52:06.086Z,14.60
2022-08-09T07:54:31.180Z,7.80
2022-08-09T07:57:04.003Z,14.20
2022-08-09T07:59:52.308Z,6.50
2022-08-09T08:02:42.413Z,6.40
2022-08-09T08:05:18.055Z,11.80
2022-08-09T08:09:01.960Z,8.80
2022-08-09T08:10:41.671Z,8.10
2022-08-09T08:13:42.577Z,10.80
2022-08-09T08:16:31.688Z,10.10
2022-08-09T08:19:04.631Z,8.60
2022-08-09T08:21:39.446Z,11.10
2022-08-09T08:24:11.897Z,6.90
2022-08-09T08:26:55.538Z,16.20
2022-08-09T08:29:28.081Z,3.60
2022-08-09T08:32:03.704Z,8.00
2022-08-09T08:34:41.399Z,7.10
2022-08-09T08:37:15.797Z,14.20
2022-08-09T08:39:51.323Z,15.80
2022-08-09T08:42:24.191Z,8.00
2022-08-09T08:45:13.380Z,7.70
2022-08-09T08:47:45.367Z,4.30
2022-08-09T08:50:20.128Z,10.10
2022-08-09T08:52:59.406Z,5.60
2022-08-09T08:55:29.839Z,7.10
2022-08-09T08:58:02.995Z,9.80
2022-08-09T09:00:34.850Z,6.60
2022-08-09T09:03:11.511Z,7.90
2022-08-09T09:06:00.615Z,8.40
2022-08-09T09:08:40.652Z,8.30
2022-08-09T09:11:13.941Z,9.50
2022-08-09T09:13:57.406Z,9.80
2022-08-09T09:16:32.357Z,3.80
2022-08-09T09:22:12.997Z,6.10
2022-08-09T09:24:50.128Z,8.60
2022-08-09T09:28:06.380Z,2.50
2022-08-09T09:30:38.281Z,4.60
2022-08-09T09:33:15.365Z,6.30
2022-08-09T09:36:01.486Z,4.20
2022-08-09T09:38:46.376Z,2.90
2022-08-09T09:41:48.710Z,2.70
2022-08-09T09:44:27.901Z,6.40
2022-08-09T09:47:07.610Z,3.00
2022-08-09T09:49:56.247Z,5.70
2022-08-09T09:52:36.527Z,6.80
2022-08-09T09:55:23.828Z,4.90
2022-08-09T09:58:03.009Z,3.10
2022-08-09T10:00:35.730Z,2.30
2022-08-09T10:03:09.227Z,3.00
2022-08-09T10:06:08.539Z,3.90
2022-08-09T10:08:54.289Z,5.40
2022-08-09T10:12:00.665Z,2.60
2022-08-09T10:14:27.682Z,6.00
2022-08-09T10:17:38.761Z,2.10
2022-08-09T10:20:04.978Z,3.10
2022-08-09T10:22:34.997Z,3.80
2022-08-09T10:25:12.037Z,5.40
2022-08-09T10:27:56.101Z,2.30
2022-08-09T10:34:04.431Z,4.10
2022-08-09T10:36:15.939Z,4.20
2022-08-09T10:38:55.964Z,2.20
2022-08-09T10:41:31.378Z,2.60
2022-08-09T10:44:01.980Z,2.90
2022-08-09T10:46:57.732Z,5.50
2022-08-09T10:49:58.317Z,2.30
2022-08-09T10:52:45.956Z,5.80
2022-08-09T10:55:25.287Z,3.40
2022-08-09T10:57:59.766Z,5.40
2022-08-09T11:00:41.725Z,2.40
2022-08-09T11:03:51.430Z,4.20
2022-08-09T11:06:25.716Z,9.20
2022-08-09T11:09:06.014Z,3.40
2022-08-09T11:12:13.157Z,4.90
2022-08-09T11:14:44.887Z,2.50
2022-08-09T11:17:56.846Z,4.90
2022-08-09T11:21:10.588Z,2.50
2022-08-09T11:23:59.936Z,3.30
2022-08-09T11:26:52.153Z,7.50
2022-08-09T11:30:04.640Z,4.00
2022-08-09T11:32:50.913Z,4.60
2022-08-09T11:35:35.331Z,1.90
2022-08-09T11:38:32.115Z,2.60
2022-08-09T11:41:28.141Z,3.50
2022-08-09T11:44:29.675Z,3.50
2022-08-09T11:47:01.442Z,4.60
2022-08-09T11:50:55.325Z,3.60
2022-08-09T11:53:58.835Z,1.70
2022-08-09T11:56:41.674Z,7.20
2022-08-09T11:59:15.043Z,3.10
2022-08-09T12:02:34.108Z,2.20
2022-08-09T12:04:58.875Z,4.30
2022-08-09T12:07:41.844Z,2.50
2022-08-09T12:10:38.416Z,5.70
2022-08-09T12:14:10.580Z,1.80
2022-08-09T12:16:37.175Z,1.90
2022-08-09T12:19:17.077Z,2.50
2022-08-09T12:22:00.134Z,1.80
2022-08-09T12:24:40.310Z,2.50
2022-08-09T12:28:58.771Z,4.30
2022-08-09T12:30:37.070Z,3.00
2022-08-09T12:33:16.977Z,2.80
2022-08-09T12:36:31.869Z,1.70
2022-08-09T12:39:20.260Z,2.30
2022-08-09T12:41:51.477Z,4.20
2022-08-09T12:44:24.840Z,2.40
2022-08-09T12:49:37.189Z,3.30
2022-08-09T12:52:17.141Z,4.70
2022-08-09T12:56:12.832Z,2.40
2022-08-09T12:57:50.583Z,3.10
2022-08-09T13:00:34.053Z,2.00
2022-08-09T13:03:20.731Z,4.90
2022-08-09T13:06:16.018Z,1.60
2022-08-09T13:09:14.362Z,3.70
2022-08-09T13:11:47.760Z,4.00
2022-08-09T13:14:46.286Z,1.60
2022-08-09T13:18:03.701Z,4.20
2022-08-09T13:20:23.319Z,3.10
2022-08-09T13:24:42.392Z,2.70
2022-08-09T13:26:10.373Z,3.50
2022-08-09T13:28:44.951Z,5.20
2022-08-09T13:32:19.983Z,6.20
2022-08-09T13:34:11.540Z,2.30
2022-08-09T13:41:19.092Z,4.40
2022-08-09T13:42:55.159Z,1.80
2022-08-09T13:46:07.407Z,4.20
2022-08-09T13:48:26.995Z,2.30
2022-08-09T13:51:03.829Z,6.10
2022-08-09T13:53:43.596Z,4.50
2022-08-09T13:56:22.457Z,5.50
2022-08-09T13:58:59.032Z,3.30
2022-08-09T14:01:56.377Z,5.70
2022-08-09T14:04:26.821Z,3.60
2022-08-09T14:07:03.820Z,11.70
2022-08-09T14:09:38.823Z,3.40
2022-08-09T14:12:15.892Z,5.60
2022-08-09T14:14:53.534Z,4.60
2022-08-09T14:18:19.700Z,3.60
2022-08-09T14:21:03.970Z,2.70
2022-08-09T14:23:40.132Z,2.90
2022-08-09T14:26:14.183Z,8.90
2022-08-09T14:28:48.357Z,2.40
2022-08-09T14:31:35.890Z,3.80
2022-08-09T14:34:32.721Z,2.00
2022-08-09T14:37:17.548Z,3.70
2022-08-09T14:39:57.390Z,4.50
2022-08-09T14:42:36.483Z,3.30
2022-08-09T14:46:54.265Z,5.70
2022-08-09T14:48:07.860Z,1.60
2022-08-09T14:50:39.349Z,2.70
2022-08-09T14:53:39.766Z,1.90
2022-08-09T14:56:21.652Z,5.70
2022-08-09T14:58:57.969Z,2.20
2022-08-09T15:01:37.432Z,3.40
2022-08-09T15:04:12.817Z,4.60
2022-08-09T15:06:49.791Z,2.40
2022-08-09T15:09:30.501Z,2.60
2022-08-09T15:12:13.541Z,5.00
2022-08-09T15:14:44.511Z,5.10
2022-08-09T15:17:15.426Z,4.50
2022-08-09T15:19:59.672Z,2.50
2022-08-09T15:22:33.122Z,2.20
2022-08-09T15:25:38.970Z,2.30
2022-08-09T15:28:33.135Z,2.20
2022-08-09T15:31:07.462Z,2.70
2022-08-09T15:34:16.229Z,4.70
2022-08-09T15:36:37.731Z,1.90
2022-08-09T15:39:12.315Z,4.10
2022-08-09T15:41:49.856Z,3.90
2022-08-09T15:44:24.417Z,2.30
2022-08-09T15:47:02.995Z,2.70
2022-08-09T15:49:48.473Z,1.80
2022-08-09T15:52:36.804Z,2.40
2022-08-09T15:55:14.624Z,4.90
2022-08-09T15:57:53.590Z,3.30
2022-08-09T16:00:30.931Z,2.90
2022-08-09T16:03:01.541Z,3.10
2022-08-09T16:05:47.488Z,3.20
2022-08-09T16:11:29.997Z,5.40
2022-08-09T16:14:32.708Z,2.80
2022-08-09T16:17:08.821Z,2.80
2022-08-09T16:20:03.859Z,2.60
2022-08-09T16:22:42.262Z,3.30
2022-08-09T16:25:36.863Z,3.20
2022-08-09T16:28:17.156Z,3.60
2022-08-09T16:30:58.497Z,3.10
2022-08-09T16:33:31.036Z,2.40
2022-08-09T16:36:14.540Z,4.70
2022-08-09T16:38:51.477Z,5.70
2022-08-09T16:42:02.784Z,2.80
2022-08-09T16:44:27.841Z,3.40
2022-08-09T16:48:38.160Z,5.20
2022-08-09T16:50:31.880Z,4.40
2022-08-09T16:53:00.656Z,3.80
2022-08-09T16:56:00.311Z,2.30
2022-08-09T16:58:35.828Z,2.90
2022-08-09T17:01:14.619Z,3.20
2022-08-09T17:03:47.766Z,3.90
2022-08-09T17:06:31.581Z,2.10
2022-08-09T17:09:17.660Z,5.30
2022-08-09T17:12:03.785Z,4.10
2022-08-09T17:14:47.702Z,3.90
2022-08-09T17:17:26.634Z,10.50
2022-08-09T17:20:29.145Z,3.60
2022-08-09T17:22:51.998Z,3.80
2022-08-09T17:25:30.392Z,6.20
2022-08-09T17:28:07.085Z,5.60
2022-08-09T17:30:37.405Z,3.90
2022-08-09T17:33:21.829Z,6.20
2022-08-09T17:35:55.739Z,6.10
2022-08-09T17:38:30.615Z,3.40
2022-08-09T17:41:07.488Z,6.30
2022-08-09T17:43:41.359Z,8.20
2022-08-09T17:46:12.522Z,4.40
2022-08-09T17:48:51.664Z,4.30
2022-08-09T17:51:25.796Z,4.60
2022-08-09T17:54:17.716Z,4.90
2022-08-09T17:57:04.335Z,6.30
2022-08-09T17:59:40.239Z,4.50
2022-08-09T18:02:19.738Z,6.70
2022-08-09T18:05:03.351Z,3.60
2022-08-09T18:07:38.735Z,3.80
2022-08-09T18:10:27.698Z,5.10
2022-08-09T18:13:39.875Z,4.60
2022-08-09T18:16:07.861Z,11.40
2022-08-09T18:18:42.893Z,16.50
2022-08-09T18:21:22.924Z,4.70
2022-08-09T18:24:10.661Z,4.40
2022-08-09T18:26:46.986Z,6.00
2022-08-09T18:30:42.692Z,3.70
2022-08-09T18:32:18.997Z,7.90
2022-08-09T18:34:48.715Z,4.00
2022-08-09T18:37:48.798Z,7.80
2022-08-09T18:40:13.845Z,8.50
2022-08-09T18:42:48.820Z,7.00
2022-08-09T18:46:50.910Z,6.50
2022-08-09T18:48:11.652Z,7.40
2022-08-09T18:50:48.989Z,6.80
2022-08-09T18:53:18.128Z,8.00
2022-08-09T18:55:57.286Z,6.30
2022-08-09T18:58:41.603Z,5.70
2022-08-09T19:01:23.496Z,7.20
2022-08-09T19:04:06.120Z,5.40
2022-08-09T19:06:50.419Z,7.90
2022-08-09T19:09:34.123Z,9.30
2022-08-09T19:12:19.245Z,8.10
2022-08-09T19:14:55.520Z,9.00
2022-08-09T19:17:31.230Z,10.80
2022-08-09T19:20:13.603Z,6.90
2022-08-09T19:22:54.016Z,10.90
2022-08-09T19:26:01.029Z,13.00
2022-08-09T19:28:21.732Z,7.50
2022-08-09T19:31:08.237Z,18.10
2022-08-09T19:33:43.089Z,6.90
2022-08-09T19:36:20.688Z,6.50
2022-08-09T19:38:56.206Z,6.70
2022-08-09T19:41:32.958Z,6.60
2022-08-09T19:44:17.591Z,6.40
2022-08-09T19:46:53.632Z,4.60
2022-08-09T19:50:08.876Z,6.30
2022-08-09T19:52:22.957Z,6.40
2022-08-09T19:55:02.766Z,7.30
2022-08-09T19:57:49.820Z,4.70
2022-08-09T20:00:23.313Z,8.20
2022-08-09T20:04:07.039Z,13.50
2022-08-09T20:06:23.101Z,6.80
2022-08-09T20:09:20.582Z,9.90
2022-08-09T20:12:08.668Z,7.60
2022-08-09T20:15:04.679Z,10.90
2022-08-09T20:17:41.586Z,8.50
2022-08-09T20:20:20.803Z,6.10
2022-08-09T20:23:00.830Z,6.20
2022-08-09T20:25:49.544Z,12.30
2022-08-09T20:28:28.206Z,11.30
2022-08-09T20:31:13.745Z,7.60
2022-08-09T20:33:58.166Z,14.40
2022-08-09T20:36:30.066Z,19.50
2022-08-09T20:39:28.151Z,40.20
2022-08-09T20:41:56.359Z,45.60
2022-08-09T20:44:36.520Z,46.50
2022-08-09T20:47:48.209Z,20.20
2022-08-09T20:50:00.512Z,9.80
2022-08-09T20:52:46.931Z,13.10
2022-08-09T20:55:29.633Z,7.60
2022-08-09T20:58:36.531Z,8.20
2022-08-09T21:01:32.394Z,13.40
2022-08-09T21:05:55.151Z,14.80
2022-08-09T21:07:12.565Z,12.70
2022-08-09T21:09:56.869Z,14.70
2022-08-09T21:12:32.588Z,16.70
2022-08-09T21:15:23.570Z,10.60
2022-08-09T21:21:52.869Z,11.50
2022-08-09T21:24:29.004Z,18.90
2022-08-09T21:27:10.417Z,19.00
2022-08-09T21:30:04.551Z,12.30
2022-08-09T21:32:50.709Z,8.20
2022-08-09T21:36:11.962Z,16.80
2022-08-09T21:38:51.107Z,9.30
2022-08-09T21:42:04.049Z,9.40
2022-08-09T21:44:33.168Z,8.80
2022-08-09T21:47:09.982Z,10.20
2022-08-09T21:49:42.988Z,6.70
2022-08-09T21:52:17.457Z,14.50
2022-08-09T21:54:59.421Z,8.50
2022-08-09T21:57:58.823Z,10.60
2022-08-09T22:00:32.123Z,15.30
2022-08-09T22:03:04.774Z,9.20
2022-08-09T22:05:42.230Z,14.20
2022-08-09T22:08:16.158Z,9.50
2022-08-09T22:11:00.877Z,9.60
2022-08-09T22:13:49.552Z,8.60
2022-08-09T22:16:21.506Z,14.50
2022-08-09T22:21:49.582Z,8.00
2022-08-09T22:24:26.480Z,9.10
2022-08-09T22:26:57.762Z,10.30
2022-08-09T22:29:38.393Z,11.10
2022-08-09T22:32:29.709Z,8.60
2022-08-09T22:35:06.424Z,13.70
2022-08-09T22:38:07.119Z,7.90
2022-08-09T22:40:39.445Z,10.00
2022-08-09T22:44:00.505Z,7.70
2022-08-09T22:48:11.353Z,10.20
2022-08-09T22:49:10.264Z,8.90
2022-08-09T22:51:49.853Z,11.60
2022-08-09T22:54:32.285Z,7.30
2022-08-09T22:57:02.218Z,10.70
2022-08-09T22:59:56.276Z,12.80
2022-08-09T23:05:24.940Z,9.40
2022-08-09T23:08:29.340Z,9.40
2022-08-09T23:11:03.065Z,9.10
2022-08-09T23:13:37.951Z,7.50
2022-08-09T23:16:12.998Z,12.10
2022-08-09T23:18:44.940Z,9.40
2022-08-09T23:21:24.541Z,13.10
2022-08-09T23:24:05.513Z,14.80
2022-08-09T23:26:37.469Z,11.70
2022-08-09T23:29:11.224Z,9.30
2022-08-09T23:31:47.694Z,8.70
2022-08-09T23:34:28.929Z,7.60
2022-08-09T23:37:01.052Z,8.00
2022-08-09T23:39:34.357Z,7.90
2022-08-09T23:42:06.884Z,8.90
2022-08-09T23:44:38.375Z,8.60
2022-08-09T23:47:09.509Z,11.70
2022-08-09T23:49:43.306Z,11.70
2022-08-09T23:52:13.229Z,10.20
2022-08-09T23:54:55.663Z,9.00
2022-08-09T23:57:46.857Z,10.20
